Sandia Park, NM (87047)

05:28 PM MST del 20 Dicembre 2014 (GMT -0700)
Mike in Sandia Knolls | Change Station
CLOSE
Current Station
Stazione meteo personale
Location: Sandia Park, NM
Altitudine: 6693 ft
Stazioni meteo nelle vicinanze

Alt. 6693 ft 35.17 °N, 106.31 °W | Updated 3 minutes ago

Sereno
Sereno
32.0 °F
Sembra 32 °F
N
0.0
Vento Variabile Vento da SSO
Gusts 0.0 mph

Oggi
Massima -- | Minima -- °F
--% Possibilità di precip.
Ieri
Massima -- | Minima -- °F
Precip. -- in
7:09 AM 4:56 PM
Luna calante, 1% visible
Pressione 30.09 in
Visibilità 10.0 miglia
Nuvole Alcuni 25000 ft
Raffreddamento del vento 32 °F
Punto di rugiada 22 °F
Umidità 65%
Piovosità 0.00 in
Spessore del manto nevoso Non disponibile.
Raggi UV 0 fuori da 12
Polline 2.30 fuori da 12
Qualità dell'aria Non disponibile.
Flu Activity Non disponibile.
METAR KABQ 202352Z 12004KT 10SM FEW250 06/M03 A3008 RMK AO2 SLP190 T00561028 10072 20022 58006

More Conditions Fewer Conditions

Pressione 30.09 in
Visibilità 10.0 miglia
Nuvole Alcuni 25000 ft
Raffreddamento del vento 32 °F
Punto di rugiada 22 °F
Umidità 65%
Piovosità 0.00 in
Spessore del manto nevoso Non disponibile.
Raggi UV 0 fuori da 12
Polline 2.30 fuori da 12
Qualità dell'aria Non disponibile.
Flu Activity Non disponibile.
METAR KABQ 202352Z 12004KT 10SM FEW250 06/M03 A3008 RMK AO2 SLP190 T00561028 10072 20022 58006

More Conditions Fewer Conditions

10-Day Weather Forecast

Almanac

Astronomia

Dec. 20, 2014 Alba Tramonto
Ora attuale
Crepuscolo civile
Crepuscolo nautico
Crepuscolo astronomico
Luna
Estensione della luce visibile
Lunghezza del giorno
Tomorrow will be .
, % of the Moon is Illuminated

Gli estremi di oggi

State Highs State Lows

Community

WunderPhotos

Upload Photos

1,779,325 foto caricate!

WunderBlogs® & News

Nearby

Qualità dell'aria

  Qualità dell'aria Indice AQ Inquinante
Not available.

Profondità neve

Stazione Profondità Altitudine

Attività sismica

Città  Distanza Mag. Data & Ora
Minimo Magnitudo Mostrato è 2.5.

Temperature delle acque costiere

Località Temperatura

Stazioni meteo nelle vicinanze